sensor_id;sensor_type;location;lat;lon;timestamp;pressure;altitude;pressure_sealevel;temperature;humidity
72330;BME280;69154;52.076;5.110;2023-07-02T00:01:17;100721.81;;;17.53;32.52
72330;BME280;69154;52.076;5.110;2023-07-02T00:03:42;100726.04;;;18.06;32.08
72330;BME280;69154;52.076;5.110;2023-07-02T00:06:07;100730.87;;;18.14;32.66
72330;BME280;69154;52.076;5.110;2023-07-02T00:08:33;100739.51;;;17.41;31.69
72330;BME280;69154;52.076;5.110;2023-07-02T00:10:58;100743.50;;;16.35;30.89
72330;BME280;69154;52.076;5.110;2023-07-02T00:13:24;100744.88;;;15.77;32.96
72330;BME280;69154;52.076;5.110;2023-07-02T00:15:49;100747.04;;;16.68;32.09
72330;BME280;69154;52.076;5.110;2023-07-02T00:18:14;100744.55;;;18.00;31.01
72330;BME280;69154;52.076;5.110;2023-07-02T00:20:40;100741.74;;;18.43;30.68
72330;BME280;69154;52.076;5.110;2023-07-02T00:23:04;100737.78;;;18.60;30.76
72330;BME280;69154;52.076;5.110;2023-07-02T00:25:30;100743.74;;;17.90;31.66
72330;BME280;69154;52.076;5.110;2023-07-02T00:27:55;100746.05;;;17.69;30.35
72330;BME280;69154;52.076;5.110;2023-07-02T00:30:20;100751.37;;;17.33;30.06
72330;BME280;69154;52.076;5.110;2023-07-02T00:32:46;100749.47;;;17.99;29.74
72330;BME280;69154;52.076;5.110;2023-07-02T00:35:11;100746.73;;;16.95;29.85
72330;BME280;69154;52.076;5.110;2023-07-02T00:37:36;100745.34;;;18.08;29.26
72330;BME280;69154;52.076;5.110;2023-07-02T00:40:01;100745.70;;;17.26;29.37
72330;BME280;69154;52.076;5.110;2023-07-02T00:42:26;100744.13;;;17.82;30.62
72330;BME280;69154;52.076;5.110;2023-07-02T00:44:52;100751.24;;;17.02;30.13
72330;BME280;69154;52.076;5.110;2023-07-02T00:47:18;100749.81;;;18.57;29.81
72330;BME280;69154;52.076;5.110;2023-07-02T00:49:43;100750.73;;;17.82;30.27
72330;BME280;69154;52.076;5.110;2023-07-02T00:52:08;100755.70;;;17.79;30.07
72330;BME280;69154;52.076;5.110;2023-07-02T00:54:33;100756.79;;;18.76;28.83
72330;BME280;69154;52.076;5.110;2023-07-02T00:56:59;100759.13;;;17.94;28.45
72330;BME280;69154;52.076;5.110;2023-07-02T00:59:24;100757.43;;;18.04;28.93
72330;BME280;69154;52.076;5.110;2023-07-02T01:01:49;100762.59;;;18.69;30.05
72330;BME280;69154;52.076;5.110;2023-07-02T01:04:17;100758.81;;;18.71;30.57
72330;BME280;69154;52.076;5.110;2023-07-02T01:06:40;100765.50;;;19.23;29.33
72330;BME280;69154;52.076;5.110;2023-07-02T01:09:06;100764.75;;;18.69;29.45
72330;BME280;69154;52.076;5.110;2023-07-02T01:11:34;100764.47;;;19.05;29.06
72330;BME280;69154;52.076;5.110;2023-07-02T01:14:01;100762.59;;;18.16;29.42
72330;BME280;69154;52.076;5.110;2023-07-02T01:16:22;100762.47;;;17.90;29.47
72330;BME280;69154;52.076;5.110;2023-07-02T01:18:49;100762.69;;;16.83;29.86
72330;BME280;69154;52.076;5.110;2023-07-02T01:21:14;100763.63;;;17.65;30.31
72330;BME280;69154;52.076;5.110;2023-07-02T01:23:39;100766.50;;;17.71;30.42
72330;BME280;69154;52.076;5.110;2023-07-02T01:26:04;100765.81;;;18.25;29.41
72330;BME280;69154;52.076;5.110;2023-07-02T01:28:35;100763.18;;;17.72;30.00
72330;BME280;69154;52.076;5.110;2023-07-02T01:30:55;100761.33;;;17.27;28.29
72330;BME280;69154;52.076;5.110;2023-07-02T01:33:20;100758.83;;;17.49;29.95
72330;BME280;69154;52.076;5.110;2023-07-02T01:35:45;100760.91;;;16.80;29.32
72330;BME280;69154;52.076;5.110;2023-07-02T01:38:10;100764.32;;;16.28;30.70
72330;BME280;69154;52.076;5.110;2023-07-02T01:40:36;100767.40;;;18.14;29.45
72330;BME280;69154;52.076;5.110;2023-07-02T01:43:01;100770.94;;;18.90;28.94
72330;BME280;69154;52.076;5.110;2023-07-02T01:45:26;100769.33;;;18.50;28.47
72330;BME280;69154;52.076;5.110;2023-07-02T01:47:51;100766.52;;;17.74;28.94
72330;BME280;69154;52.076;5.110;2023-07-02T01:50:17;100768.98;;;17.07;28.94
72330;BME280;69154;52.076;5.110;2023-07-02T01:52:42;100772.84;;;17.42;29.39
72330;BME280;69154;52.076;5.110;2023-07-02T01:55:08;100777.50;;;17.64;29.42
72330;BME280;69154;52.076;5.110;2023-07-02T01:57:34;100775.68;;;18.34;29.30
72330;BME280;69154;52.076;5.110;2023-07-02T01:59:59;100778.65;;;18.12;29.06
72330;BME280;69154;52.076;5.110;2023-07-02T02:02:25;100777.79;;;18.34;28.36
72330;BME280;69154;52.076;5.110;2023-07-02T02:04:50;100781.25;;;17.92;28.10
72330;BME280;69154;52.076;5.110;2023-07-02T02:07:15;100778.12;;;17.58;28.61
72330;BME280;69154;52.076;5.110;2023-07-02T02:09:41;100780.13;;;18.53;28.58
72330;BME280;69154;52.076;5.110;2023-07-02T02:12:07;100779.52;;;17.57;29.50
72330;BME280;69154;52.076;5.110;2023-07-02T02:14:32;100775.05;;;17.52;30.64
72330;BME280;69154;52.076;5.110;2023-07-02T02:16:56;100774.32;;;17.95;28.81
72330;BME280;69154;52.076;5.110;2023-07-02T02:19:22;100776.34;;;17.51;29.54
72330;BME280;69154;52.076;5.110;2023-07-02T02:21:48;100783.92;;;17.08;29.37
72330;BME280;69154;52.076;5.110;2023-07-02T02:24:14;100787.42;;;17.50;30.10
72330;BME280;69154;52.076;5.110;2023-07-02T02:26:39;100790.10;;;17.22;29.92
72330;BME280;69154;52.076;5.110;2023-07-02T02:29:05;100786.70;;;16.69;30.16
72330;BME280;69154;52.076;5.110;2023-07-02T02:31:30;100783.84;;;15.44;31.39
72330;BME280;69154;52.076;5.110;2023-07-02T02:33:55;100791.56;;;15.63;32.04
72330;BME280;69154;52.076;5.110;2023-07-02T02:36:21;100797.29;;;16.04;30.70
72330;BME280;69154;52.076;5.110;2023-07-02T02:38:46;100794.41;;;15.97;31.83
72330;BME280;69154;52.076;5.110;2023-07-02T02:41:11;100790.84;;;16.02;31.06
72330;BME280;69154;52.076;5.110;2023-07-02T02:43:36;100792.37;;;15.98;30.92
72330;BME280;69154;52.076;5.110;2023-07-02T02:46:02;100790.19;;;16.74;29.97
72330;BME280;69154;52.076;5.110;2023-07-02T02:48:27;100794.08;;;16.31;30.75
72330;BME280;69154;52.076;5.110;2023-07-02T02:50:53;100800.03;;;16.73;29.50
72330;BME280;69154;52.076;5.110;2023-07-02T02:53:18;100803.43;;;16.36;31.13
72330;BME280;69154;52.076;5.110;2023-07-02T02:55:44;100804.81;;;17.26;29.60
72330;BME280;69154;52.076;5.110;2023-07-02T02:58:09;100806.89;;;16.86;30.25
72330;BME280;69154;52.076;5.110;2023-07-02T03:00:35;100806.85;;;16.97;29.68
72330;BME280;69154;52.076;5.110;2023-07-02T03:03:00;100812.06;;;17.12;29.93
72330;BME280;69154;52.076;5.110;2023-07-02T03:05:26;100816.30;;;15.64;30.31
72330;BME280;69154;52.076;5.110;2023-07-02T03:07:51;100818.59;;;15.01;30.95
72330;BME280;69154;52.076;5.110;2023-07-02T03:10:16;100819.36;;;14.48;31.49
72330;BME280;69154;52.076;5.110;2023-07-02T03:12:43;100822.46;;;15.49;31.13
72330;BME280;69154;52.076;5.110;2023-07-02T03:15:07;100825.24;;;14.73;31.73
72330;BME280;69154;52.076;5.110;2023-07-02T03:17:33;100821.63;;;15.26;31.41
72330;BME280;69154;52.076;5.110;2023-07-02T03:19:59;100820.18;;;16.80;30.56
72330;BME280;69154;52.076;5.110;2023-07-02T03:22:23;100819.42;;;15.41;30.33
72330;BME280;69154;52.076;5.110;2023-07-02T03:24:49;100814.97;;;14.45;31.35
72330;BME280;69154;52.076;5.110;2023-07-02T03:27:15;100815.33;;;15.10;31.70
72330;BME280;69154;52.076;5.110;2023-07-02T03:29:41;100817.33;;;15.84;31.18
72330;BME280;69154;52.076;5.110;2023-07-02T03:32:06;100820.30;;;15.45;30.70
72330;BME280;69154;52.076;5.110;2023-07-02T03:34:31;100821.19;;;16.26;30.65
72330;BME280;69154;52.076;5.110;2023-07-02T03:36:56;100818.04;;;15.99;32.59
72330;BME280;69154;52.076;5.110;2023-07-02T03:39:22;100817.16;;;16.40;31.38
72330;BME280;69154;52.076;5.110;2023-07-02T03:41:48;100821.02;;;16.10;31.27
72330;BME280;69154;52.076;5.110;2023-07-02T03:44:13;100827.83;;;14.90;30.88
72330;BME280;69154;52.076;5.110;2023-07-02T03:46:39;100823.30;;;16.36;29.77
72330;BME280;69154;52.076;5.110;2023-07-02T03:49:04;100821.41;;;15.35;30.38
72330;BME280;69154;52.076;5.110;2023-07-02T03:51:30;100827.00;;;16.16;30.26
72330;BME280;69154;52.076;5.110;2023-07-02T03:53:55;100827.44;;;15.72;31.09
72330;BME280;69154;52.076;5.110;2023-07-02T03:56:20;100833.04;;;15.88;31.25
72330;BME280;69154;52.076;5.110;2023-07-02T03:58:45;100838.48;;;15.96;30.62
72330;BME280;69154;52.076;5.110;2023-07-02T04:01:11;100835.74;;;16.45;29.98
72330;BME280;69154;52.076;5.110;2023-07-02T04:03:36;100841.12;;;16.13;30.31
72330;BME280;69154;52.076;5.110;2023-07-02T04:06:02;100847.75;;;15.93;31.63
72330;BME280;69154;52.076;5.110;2023-07-02T04:08:27;100854.55;;;16.17;29.38
72330;BME280;69154;52.076;5.110;2023-07-02T04:10:52;100852.71;;;16.47;29.45
72330;BME280;69154;52.076;5.110;2023-07-02T04:13:18;100862.66;;;16.03;31.04
72330;BME280;69154;52.076;5.110;2023-07-02T04:15:43;100855.89;;;17.01;29.42
72330;BME280;69154;52.076;5.110;2023-07-02T04:18:10;100859.47;;;16.49;29.21
72330;BME280;69154;52.076;5.110;2023-07-02T04:20:34;100856.70;;;16.45;29.56
72330;BME280;69154;52.076;5.110;2023-07-02T04:23:00;100862.21;;;14.84;30.03
72330;BME280;69154;52.076;5.110;2023-07-02T04:25:26;100863.42;;;15.48;30.48
72330;BME280;69154;52.076;5.110;2023-07-02T04:27:51;100868.69;;;15.38;29.94
72330;BME280;69154;52.076;5.110;2023-07-02T04:30:17;100863.73;;;15.78;30.04
72330;BME280;69154;52.076;5.110;2023-07-02T04:32:42;100863.93;;;16.48;30.13
72330;BME280;69154;52.076;5.110;2023-07-02T04:35:08;100866.70;;;16.32;30.18
72330;BME280;69154;52.076;5.110;2023-07-02T04:37:33;100868.04;;;16.65;29.44
72330;BME280;69154;52.076;5.110;2023-07-02T04:39:58;100869.51;;;15.89;29.66
72330;BME280;69154;52.076;5.110;2023-07-02T04:42:28;100869.51;;;16.38;30.02
72330;BME280;69154;52.076;5.110;2023-07-02T04:44:49;100870.11;;;16.18;29.73
72330;BME280;69154;52.076;5.110;2023-07-02T04:47:15;100867.90;;;17.07;30.59
72330;BME280;69154;52.076;5.110;2023-07-02T04:49:41;100871.94;;;16.66;30.08
72330;BME280;69154;52.076;5.110;2023-07-02T04:52:06;100878.75;;;16.63;29.43
72330;BME280;69154;52.076;5.110;2023-07-02T04:54:31;100882.93;;;16.24;29.63
72330;BME280;69154;52.076;5.110;2023-07-02T04:56:57;100881.84;;;16.39;30.66
72330;BME280;69154;52.076;5.110;2023-07-02T04:59:22;100883.26;;;16.93;29.95
72330;BME280;69154;52.076;5.110;2023-07-02T05:01:48;100881.52;;;15.86;30.91
72330;BME280;69154;52.076;5.110;2023-07-02T05:04:13;100885.54;;;16.02;30.24
72330;BME280;69154;52.076;5.110;2023-07-02T05:06:39;100882.56;;;16.89;29.87
72330;BME280;69154;52.076;5.110;2023-07-02T05:09:04;100879.29;;;16.91;30.04
72330;BME280;69154;52.076;5.110;2023-07-02T05:11:30;100881.93;;;17.68;29.49
72330;BME280;69154;52.076;5.110;2023-07-02T05:13:55;100880.26;;;17.32;28.58
72330;BME280;69154;52.076;5.110;2023-07-02T05:16:20;100886.81;;;17.28;30.45
72330;BME280;69154;52.076;5.110;2023-07-02T05:18:46;100891.34;;;17.20;29.85
72330;BME280;69154;52.076;5.110;2023-07-02T05:21:11;100891.71;;;16.71;29.97
72330;BME280;69154;52.076;5.110;2023-07-02T05:23:36;100892.78;;;17.14;30.66
72330;BME280;69154;52.076;5.110;2023-07-02T05:26:02;100892.49;;;16.91;28.80
72330;BME280;69154;52.076;5.110;2023-07-02T05:28:27;100894.84;;;18.19;31.38
72330;BME280;69154;52.076;5.110;2023-07-02T05:30:53;100895.89;;;17.31;29.55
72330;BME280;69154;52.076;5.110;2023-07-02T05:33:18;100894.94;;;17.30;30.77
72330;BME280;69154;52.076;5.110;2023-07-02T05:35:43;100896.27;;;16.92;29.29
72330;BME280;69154;52.076;5.110;2023-07-02T05:38:08;100899.76;;;17.20;31.77
72330;BME280;69154;52.076;5.110;2023-07-02T05:40:34;100906.42;;;17.24;29.07
72330;BME280;69154;52.076;5.110;2023-07-02T05:42:59;100912.02;;;17.88;30.17
72330;BME280;69154;52.076;5.110;2023-07-02T05:45:24;100914.57;;;17.92;27.90
72330;BME280;69154;52.076;5.110;2023-07-02T05:47:49;100915.25;;;18.16;27.03
72330;BME280;69154;52.076;5.110;2023-07-02T05:50:14;100916.22;;;17.88;27.57
72330;BME280;69154;52.076;5.110;2023-07-02T05:52:41;100918.74;;;16.71;30.56
72330;BME280;69154;52.076;5.110;2023-07-02T05:55:08;100922.57;;;16.23;29.93
72330;BME280;69154;52.076;5.110;2023-07-02T05:57:31;100921.69;;;17.09;30.34
72330;BME280;69154;52.076;5.110;2023-07-02T05:59:56;100923.09;;;17.71;28.71
72330;BME280;69154;52.076;5.110;2023-07-02T06:02:22;100930.69;;;18.87;28.96
72330;BME280;69154;52.076;5.110;2023-07-02T06:04:46;100921.86;;;16.46;29.60
72330;BME280;69154;52.076;5.110;2023-07-02T06:07:12;100931.56;;;16.72;29.62
72330;BME280;69154;52.076;5.110;2023-07-02T06:09:37;100927.87;;;17.61;29.97
72330;BME280;69154;52.076;5.110;2023-07-02T06:12:03;100930.78;;;17.61;29.68
72330;BME280;69154;52.076;5.110;2023-07-02T06:14:28;100932.63;;;16.62;28.82
72330;BME280;69154;52.076;5.110;2023-07-02T06:16:53;100933.41;;;16.74;28.84
72330;BME280;69154;52.076;5.110;2023-07-02T06:19:18;100938.59;;;18.05;28.83
72330;BME280;69154;52.076;5.110;2023-07-02T06:21:44;100939.36;;;18.92;28.67
72330;BME280;69154;52.076;5.110;2023-07-02T06:24:09;100941.89;;;18.59;27.65
72330;BME280;69154;52.076;5.110;2023-07-02T06:26:35;100943.02;;;18.92;27.52
72330;BME280;69154;52.076;5.110;2023-07-02T06:29:00;100952.92;;;16.48;28.04
72330;BME280;69154;52.076;5.110;2023-07-02T06:31:26;100953.05;;;16.93;29.38
72330;BME280;69154;52.076;5.110;2023-07-02T06:33:51;100949.79;;;17.20;29.09
72330;BME280;69154;52.076;5.110;2023-07-02T06:36:17;100951.48;;;16.76;29.00
72330;BME280;69154;52.076;5.110;2023-07-02T06:38:41;100949.98;;;18.36;26.88
72330;BME280;69154;52.076;5.110;2023-07-02T06:41:07;100956.14;;;17.64;27.81
72330;BME280;69154;52.076;5.110;2023-07-02T06:43:32;100958.83;;;18.21;27.90
72330;BME280;69154;52.076;5.110;2023-07-02T06:45:57;100960.17;;;17.28;27.45
72330;BME280;69154;52.076;5.110;2023-07-02T06:48:22;100965.45;;;16.79;28.71
72330;BME280;69154;52.076;5.110;2023-07-02T06:50:48;100971.11;;;14.70;29.70
72330;BME280;69154;52.076;5.110;2023-07-02T06:53:13;100972.68;;;15.94;30.21
72330;BME280;69154;52.076;5.110;2023-07-02T06:55:38;100977.34;;;17.12;29.35
72330;BME280;69154;52.076;5.110;2023-07-02T06:58:04;100987.12;;;17.27;28.36
72330;BME280;69154;52.076;5.110;2023-07-02T07:00:31;100984.21;;;16.74;27.38
72330;BME280;69154;52.076;5.110;2023-07-02T07:02:53;100996.84;;;16.13;27.55
72330;BME280;69154;52.076;5.110;2023-07-02T07:05:18;100989.96;;;14.92;29.60
72330;BME280;69154;52.076;5.110;2023-07-02T07:07:44;100985.72;;;15.24;31.08
72330;BME280;69154;52.076;5.110;2023-07-02T07:10:09;100991.18;;;15.24;29.85
72330;BME280;69154;52.076;5.110;2023-07-02T07:12:34;100996.43;;;15.63;28.03
72330;BME280;69154;52.076;5.110;2023-07-02T07:15:00;101003.92;;;16.13;28.79
72330;BME280;69154;52.076;5.110;2023-07-02T07:17:25;100993.49;;;14.98;30.08
72330;BME280;69154;52.076;5.110;2023-07-02T07:19:51;101009.51;;;15.87;28.07
72330;BME280;69154;52.076;5.110;2023-07-02T07:22:16;101006.65;;;15.40;28.73
72330;BME280;69154;52.076;5.110;2023-07-02T07:24:41;101004.57;;;15.76;28.89
72330;BME280;69154;52.076;5.110;2023-07-02T07:27:06;101007.76;;;15.02;29.85
72330;BME280;69154;52.076;5.110;2023-07-02T07:29:31;101008.87;;;15.31;29.67
72330;BME280;69154;52.076;5.110;2023-07-02T07:31:57;101014.53;;;14.38;29.76
72330;BME280;69154;52.076;5.110;2023-07-02T07:34:21;101014.87;;;14.61;29.51
72330;BME280;69154;52.076;5.110;2023-07-02T07:36:46;101017.75;;;15.71;28.85
72330;BME280;69154;52.076;5.110;2023-07-02T07:39:12;101024.65;;;16.39;27.40
72330;BME280;69154;52.076;5.110;2023-07-02T07:41:37;101025.26;;;16.83;27.36
72330;BME280;69154;52.076;5.110;2023-07-02T07:44:03;101027.42;;;16.84;27.11
72330;BME280;69154;52.076;5.110;2023-07-02T07:46:28;101033.21;;;16.93;26.78
72330;BME280;69154;52.076;5.110;2023-07-02T07:48:53;101028.45;;;15.55;27.61
72330;BME280;69154;52.076;5.110;2023-07-02T07:51:18;101030.89;;;16.40;27.40
72330;BME280;69154;52.076;5.110;2023-07-02T07:53:44;101030.77;;;16.13;27.39
72330;BME280;69154;52.076;5.110;2023-07-02T07:56:08;101035.70;;;15.46;29.06
72330;BME280;69154;52.076;5.110;2023-07-02T07:58:34;101032.07;;;14.39;29.81
72330;BME280;69154;52.076;5.110;2023-07-02T08:01:00;101040.73;;;15.02;29.07
72330;BME280;69154;52.076;5.110;2023-07-02T08:03:24;101034.44;;;14.46;29.66
72330;BME280;69154;52.076;5.110;2023-07-02T08:05:49;101033.86;;;15.98;29.23
72330;BME280;69154;52.076;5.110;2023-07-02T08:08:14;101040.36;;;16.17;28.48
72330;BME280;69154;52.076;5.110;2023-07-02T08:10:40;101041.36;;;16.96;27.17
72330;BME280;69154;52.076;5.110;2023-07-02T08:13:05;101039.05;;;16.70;26.85
72330;BME280;69154;52.076;5.110;2023-07-02T08:15:30;101053.32;;;17.14;27.85
72330;BME280;69154;52.076;5.110;2023-07-02T08:17:55;101040.92;;;15.64;28.87
72330;BME280;69154;52.076;5.110;2023-07-02T08:20:20;101045.37;;;15.92;27.98
72330;BME280;69154;52.076;5.110;2023-07-02T08:22:46;101052.33;;;16.42;26.25
72330;BME280;69154;52.076;5.110;2023-07-02T08:25:10;101048.64;;;15.42;26.28
72330;BME280;69154;52.076;5.110;2023-07-02T08:27:36;101045.95;;;15.28;26.28
72330;BME280;69154;52.076;5.110;2023-07-02T08:30:01;101050.12;;;16.20;26.32
72330;BME280;69154;52.076;5.110;2023-07-02T08:32:26;101054.69;;;17.89;25.82
72330;BME280;69154;52.076;5.110;2023-07-02T08:34:52;101070.09;;;16.06;26.06
72330;BME280;69154;52.076;5.110;2023-07-02T08:37:17;101064.80;;;16.27;26.33
72330;BME280;69154;52.076;5.110;2023-07-02T08:39:42;101063.93;;;16.57;25.74
72330;BME280;69154;52.076;5.110;2023-07-02T08:42:07;101065.99;;;16.87;27.28
72330;BME280;69154;52.076;5.110;2023-07-02T08:44:32;101068.74;;;17.46;25.76
72330;BME280;69154;52.076;5.110;2023-07-02T08:46:58;101054.48;;;16.48;25.84
72330;BME280;69154;52.076;5.110;2023-07-02T08:49:24;101064.45;;;16.52;25.56
72330;BME280;69154;52.076;5.110;2023-07-02T08:51:50;101062.21;;;16.00;26.83
72330;BME280;69154;52.076;5.110;2023-07-02T08:54:17;101063.41;;;16.17;27.12
72330;BME280;69154;52.076;5.110;2023-07-02T08:56:41;101064.90;;;17.45;26.82
72330;BME280;69154;52.076;5.110;2023-07-02T08:59:12;101063.24;;;18.20;23.59
72330;BME280;69154;52.076;5.110;2023-07-02T09:01:32;101073.80;;;17.66;24.70
72330;BME280;69154;52.076;5.110;2023-07-02T09:03:59;101067.47;;;16.45;25.58
72330;BME280;69154;52.076;5.110;2023-07-02T09:06:24;101071.88;;;17.08;24.02
72330;BME280;69154;52.076;5.110;2023-07-02T09:08:49;101068.72;;;17.32;24.37
72330;BME280;69154;52.076;5.110;2023-07-02T09:11:16;101073.86;;;17.98;23.49
72330;BME280;69154;52.076;5.110;2023-07-02T09:13:43;101072.21;;;18.29;22.76
72330;BME280;69154;52.076;5.110;2023-07-02T09:16:07;101069.43;;;17.07;23.20
72330;BME280;69154;52.076;5.110;2023-07-02T09:18:33;101081.76;;;18.19;23.31
72330;BME280;69154;52.076;5.110;2023-07-02T09:20:58;101071.19;;;17.61;23.43
72330;BME280;69154;52.076;5.110;2023-07-02T09:23:33;101077.93;;;17.69;23.25
72330;BME280;69154;52.076;5.110;2023-07-02T09:25:50;101072.90;;;18.85;23.41
72330;BME280;69154;52.076;5.110;2023-07-02T09:28:18;101076.33;;;18.26;22.71
72330;BME280;69154;52.076;5.110;2023-07-02T09:30:53;101075.92;;;18.90;21.35
72330;BME280;69154;52.076;5.110;2023-07-02T09:33:07;101070.25;;;20.98;21.01
72330;BME280;69154;52.076;5.110;2023-07-02T09:35:33;101069.97;;;21.76;19.66
72330;BME280;69154;52.076;5.110;2023-07-02T09:37:59;101070.31;;;21.78;20.00
72330;BME280;69154;52.076;5.110;2023-07-02T09:40:24;101074.26;;;24.51;19.14
72330;BME280;69154;52.076;5.110;2023-07-02T09:42:50;101074.75;;;24.63;18.22
72330;BME280;69154;52.076;5.110;2023-07-02T09:45:16;101077.63;;;22.03;16.89
72330;BME280;69154;52.076;5.110;2023-07-02T09:47:44;101071.79;;;24.77;16.88
72330;BME280;69154;52.076;5.110;2023-07-02T09:50:08;101063.18;;;28.44;15.70
72330;BME280;69154;52.076;5.110;2023-07-02T09:52:33;101069.06;;;29.56;14.68
72330;BME280;69154;52.076;5.110;2023-07-02T09:54:58;101069.13;;;29.47;13.96
72330;BME280;69154;52.076;5.110;2023-07-02T09:57:24;101069.66;;;23.75;14.66
72330;BME280;69154;52.076;5.110;2023-07-02T09:59:49;101071.08;;;22.06;16.46
72330;BME280;69154;52.076;5.110;2023-07-02T10:02:15;101081.38;;;24.54;17.04
72330;BME280;69154;52.076;5.110;2023-07-02T10:04:41;101076.55;;;27.22;15.35
72330;BME280;69154;52.076;5.110;2023-07-02T10:07:06;101082.08;;;29.21;13.69
72330;BME280;69154;52.076;5.110;2023-07-02T10:09:36;101081.55;;;23.94;14.33
72330;BME280;69154;52.076;5.110;2023-07-02T10:11:57;101092.36;;;22.99;15.71
72330;BME280;69154;52.076;5.110;2023-07-02T10:14:23;101091.05;;;22.40;16.14
72330;BME280;69154;52.076;5.110;2023-07-02T10:16:50;101093.37;;;23.35;16.88
72330;BME280;69154;52.076;5.110;2023-07-02T10:19:14;101083.50;;;24.84;16.48
72330;BME280;69154;52.076;5.110;2023-07-02T10:21:40;101087.14;;;27.78;15.35
72330;BME280;69154;52.076;5.110;2023-07-02T10:24:10;101093.32;;;27.18;13.17
72330;BME280;69154;52.076;5.110;2023-07-02T10:26:31;101085.03;;;26.29;14.67
72330;BME280;69154;52.076;5.110;2023-07-02T10:28:57;101096.37;;;24.37;15.11
72330;BME280;69154;52.076;5.110;2023-07-02T10:31:22;101090.47;;;24.75;16.02
72330;BME280;69154;52.076;5.110;2023-07-02T10:33:53;101091.44;;;21.92;16.86
72330;BME280;69154;52.076;5.110;2023-07-02T10:36:21;101099.96;;;20.56;18.46
72330;BME280;69154;52.076;5.110;2023-07-02T10:38:39;101099.46;;;19.12;19.97
72330;BME280;69154;52.076;5.110;2023-07-02T10:41:04;101098.43;;;20.51;20.28
72330;BME280;69154;52.076;5.110;2023-07-02T10:43:31;101099.17;;;23.22;18.76
72330;BME280;69154;52.076;5.110;2023-07-02T10:45:56;101106.97;;;25.82;17.45
72330;BME280;69154;52.076;5.110;2023-07-02T10:48:22;101112.41;;;25.99;17.79
72330;BME280;69154;52.076;5.110;2023-07-02T10:50:47;101109.01;;;23.70;15.94
72330;BME280;69154;52.076;5.110;2023-07-02T10:53:15;101109.37;;;21.54;17.74
72330;BME280;69154;52.076;5.110;2023-07-02T10:55:39;101106.82;;;24.89;15.90
72330;BME280;69154;52.076;5.110;2023-07-02T10:58:05;101099.32;;;29.28;15.20
72330;BME280;69154;52.076;5.110;2023-07-02T11:00:30;101101.69;;;27.56;13.67
72330;BME280;69154;52.076;5.110;2023-07-02T11:02:55;101109.29;;;26.21;14.95
72330;BME280;69154;52.076;5.110;2023-07-02T11:05:21;101108.97;;;30.69;13.46
72330;BME280;69154;52.076;5.110;2023-07-02T11:07:46;101111.72;;;29.70;12.61
72330;BME280;69154;52.076;5.110;2023-07-02T11:10:18;101121.23;;;27.49;12.97
72330;BME280;69154;52.076;5.110;2023-07-02T11:12:37;101112.22;;;29.01;14.63
72330;BME280;69154;52.076;5.110;2023-07-02T11:15:11;101110.59;;;32.31;12.04
72330;BME280;69154;52.076;5.110;2023-07-02T11:17:28;101103.26;;;31.55;11.48
72330;BME280;69154;52.076;5.110;2023-07-02T11:19:54;101100.56;;;31.00;11.70
72330;BME280;69154;52.076;5.110;2023-07-02T11:22:19;101108.07;;;28.67;13.24
72330;BME280;69154;52.076;5.110;2023-07-02T11:24:45;101116.43;;;27.01;13.21
72330;BME280;69154;52.076;5.110;2023-07-02T11:27:21;101107.85;;;25.92;14.15
72330;BME280;69154;52.076;5.110;2023-07-02T11:29:36;101108.36;;;25.90;15.21
72330;BME280;69154;52.076;5.110;2023-07-02T11:32:05;101114.92;;;27.66;14.19
72330;BME280;69154;52.076;5.110;2023-07-02T11:34:27;101115.53;;;29.67;12.18
72330;BME280;69154;52.076;5.110;2023-07-02T11:36:52;101105.18;;;29.69;11.82
72330;BME280;69154;52.076;5.110;2023-07-02T11:39:18;101108.62;;;30.72;12.78
72330;BME280;69154;52.076;5.110;2023-07-02T11:41:44;101115.12;;;30.08;11.91
72330;BME280;69154;52.076;5.110;2023-07-02T11:44:09;101122.76;;;28.49;12.46
72330;BME280;69154;52.076;5.110;2023-07-02T11:46:35;101111.39;;;30.98;12.04
72330;BME280;69154;52.076;5.110;2023-07-02T11:49:00;101103.24;;;31.75;10.81
72330;BME280;69154;52.076;5.110;2023-07-02T11:51:26;101120.12;;;30.94;11.85
72330;BME280;69154;52.076;5.110;2023-07-02T11:53:51;101125.84;;;29.01;11.67
72330;BME280;69154;52.076;5.110;2023-07-02T11:56:16;101117.76;;;27.21;13.32
72330;BME280;69154;52.076;5.110;2023-07-02T11:58:42;101124.07;;;31.20;11.80
72330;BME280;69154;52.076;5.110;2023-07-02T12:01:07;101125.95;;;29.80;11.02
72330;BME280;69154;52.076;5.110;2023-07-02T12:03:32;101125.35;;;27.49;12.16
72330;BME280;69154;52.076;5.110;2023-07-02T12:05:58;101118.97;;;24.93;14.54
72330;BME280;69154;52.076;5.110;2023-07-02T12:08:23;101131.17;;;28.80;13.34
72330;BME280;69154;52.076;5.110;2023-07-02T12:10:49;101129.48;;;27.15;13.19
72330;BME280;69154;52.076;5.110;2023-07-02T12:13:15;101127.81;;;28.38;12.89
72330;BME280;69154;52.076;5.110;2023-07-02T12:15:41;101133.22;;;27.85;13.17
72330;BME280;69154;52.076;5.110;2023-07-02T12:18:06;101141.59;;;25.11;14.21
72330;BME280;69154;52.076;5.110;2023-07-02T12:20:31;101129.90;;;23.57;14.71
72330;BME280;69154;52.076;5.110;2023-07-02T12:22:56;101134.64;;;24.03;15.38
72330;BME280;69154;52.076;5.110;2023-07-02T12:25:22;101138.42;;;23.33;16.15
72330;BME280;69154;52.076;5.110;2023-07-02T12:27:49;101139.00;;;23.78;16.05
72330;BME280;69154;52.076;5.110;2023-07-02T12:30:13;101135.51;;;26.17;14.05
72330;BME280;69154;52.076;5.110;2023-07-02T12:32:39;101134.43;;;24.28;14.58
72330;BME280;69154;52.076;5.110;2023-07-02T12:35:05;101140.84;;;23.41;15.85
72330;BME280;69154;52.076;5.110;2023-07-02T12:37:32;101138.75;;;26.99;15.05
72330;BME280;69154;52.076;5.110;2023-07-02T12:39:56;101133.06;;;27.82;12.28